sensor_id;sensor_type;location;lat;lon;timestamp;P1;durP1;ratioP1;P2;durP2;ratioP2
52210;SDS011;38179;52.756;6.906;2023-09-07T00:00:21;19.80;;;18.10;;
52210;SDS011;38179;52.756;6.906;2023-09-07T00:02:47;19.85;;;18.35;;
52210;SDS011;38179;52.756;6.906;2023-09-07T00:05:12;20.20;;;18.50;;
52210;SDS011;38179;52.756;6.906;2023-09-07T00:07:39;20.17;;;18.67;;
52210;SDS011;38179;52.756;6.906;2023-09-07T00:10:05;20.63;;;18.80;;
52210;SDS011;38179;52.756;6.906;2023-09-07T00:12:31;20.05;;;18.33;;
52210;SDS011;38179;52.756;6.906;2023-09-07T00:14:58;20.38;;;18.67;;
52210;SDS011;38179;52.756;6.906;2023-09-07T00:17:24;20.02;;;18.35;;
52210;SDS011;38179;52.756;6.906;2023-09-07T00:19:50;19.95;;;18.25;;
52210;SDS011;38179;52.756;6.906;2023-09-07T00:22:17;19.40;;;18.00;;
52210;SDS011;38179;52.756;6.906;2023-09-07T00:24:43;19.75;;;18.17;;
52210;SDS011;38179;52.756;6.906;2023-09-07T00:27:10;20.27;;;18.23;;
52210;SDS011;38179;52.756;6.906;2023-09-07T00:29:37;20.20;;;18.60;;
52210;SDS011;38179;52.756;6.906;2023-09-07T00:32:04;20.13;;;18.50;;
52210;SDS011;38179;52.756;6.906;2023-09-07T00:34:30;20.20;;;18.60;;
52210;SDS011;38179;52.756;6.906;2023-09-07T00:36:56;20.73;;;18.95;;
52210;SDS011;38179;52.756;6.906;2023-09-07T00:39:23;20.17;;;18.38;;
52210;SDS011;38179;52.756;6.906;2023-09-07T00:41:49;19.58;;;17.98;;
52210;SDS011;38179;52.756;6.906;2023-09-07T00:44:15;19.65;;;18.15;;
52210;SDS011;38179;52.756;6.906;2023-09-07T00:46:41;19.50;;;17.95;;
52210;SDS011;38179;52.756;6.906;2023-09-07T00:49:10;20.17;;;18.67;;
52210;SDS011;38179;52.756;6.906;2023-09-07T00:51:39;20.38;;;18.67;;
52210;SDS011;38179;52.756;6.906;2023-09-07T00:54:05;20.00;;;18.38;;
52210;SDS011;38179;52.756;6.906;2023-09-07T00:56:31;19.83;;;18.33;;
52210;SDS011;38179;52.756;6.906;2023-09-07T00:58:58;19.92;;;18.27;;
52210;SDS011;38179;52.756;6.906;2023-09-07T01:01:25;19.58;;;18.05;;
52210;SDS011;38179;52.756;6.906;2023-09-07T01:03:52;20.10;;;18.40;;
52210;SDS011;38179;52.756;6.906;2023-09-07T01:06:20;19.30;;;17.90;;
52210;SDS011;38179;52.756;6.906;2023-09-07T01:08:53;20.30;;;18.40;;
52210;SDS011;38179;52.756;6.906;2023-09-07T01:11:27;20.33;;;18.35;;
52210;SDS011;38179;52.756;6.906;2023-09-07T01:14:02;18.98;;;17.58;;
52210;SDS011;38179;52.756;6.906;2023-09-07T01:16:29;20.50;;;18.77;;
52210;SDS011;38179;52.756;6.906;2023-09-07T01:18:59;20.27;;;18.58;;
52210;SDS011;38179;52.756;6.906;2023-09-07T01:21:26;20.05;;;18.35;;
52210;SDS011;38179;52.756;6.906;2023-09-07T01:23:59;20.15;;;18.52;;
52210;SDS011;38179;52.756;6.906;2023-09-07T01:26:25;20.48;;;18.52;;
52210;SDS011;38179;52.756;6.906;2023-09-07T01:28:52;19.95;;;18.45;;
52210;SDS011;38179;52.756;6.906;2023-09-07T01:31:17;19.75;;;18.25;;
52210;SDS011;38179;52.756;6.906;2023-09-07T01:33:44;20.60;;;18.75;;
52210;SDS011;38179;52.756;6.906;2023-09-07T01:36:11;19.80;;;18.20;;
52210;SDS011;38179;52.756;6.906;2023-09-07T01:38:37;19.77;;;18.27;;
52210;SDS011;38179;52.756;6.906;2023-09-07T01:41:03;19.67;;;18.23;;
52210;SDS011;38179;52.756;6.906;2023-09-07T01:43:29;20.42;;;18.73;;
52210;SDS011;38179;52.756;6.906;2023-09-07T01:45:55;20.52;;;18.90;;
52210;SDS011;38179;52.756;6.906;2023-09-07T01:48:21;20.60;;;19.00;;
52210;SDS011;38179;52.756;6.906;2023-09-07T01:50:47;20.02;;;18.52;;
52210;SDS011;38179;52.756;6.906;2023-09-07T01:53:17;20.33;;;18.33;;
52210;SDS011;38179;52.756;6.906;2023-09-07T01:55:42;19.90;;;18.27;;
52210;SDS011;38179;52.756;6.906;2023-09-07T01:58:08;19.95;;;18.25;;
52210;SDS011;38179;52.756;6.906;2023-09-07T02:00:37;20.23;;;18.40;;
52210;SDS011;38179;52.756;6.906;2023-09-07T02:03:06;20.35;;;18.75;;
52210;SDS011;38179;52.756;6.906;2023-09-07T02:05:32;20.38;;;18.73;;
52210;SDS011;38179;52.756;6.906;2023-09-07T02:07:59;21.17;;;19.48;;
52210;SDS011;38179;52.756;6.906;2023-09-07T02:10:25;21.00;;;19.20;;
52210;SDS011;38179;52.756;6.906;2023-09-07T02:12:51;20.35;;;18.75;;
52210;SDS011;38179;52.756;6.906;2023-09-07T02:15:17;20.27;;;18.75;;
52210;SDS011;38179;52.756;6.906;2023-09-07T02:17:43;20.95;;;19.02;;
52210;SDS011;38179;52.756;6.906;2023-09-07T02:20:12;20.80;;;19.00;;
52210;SDS011;38179;52.756;6.906;2023-09-07T02:22:39;20.60;;;18.88;;
52210;SDS011;38179;52.756;6.906;2023-09-07T02:25:05;19.88;;;18.27;;
52210;SDS011;38179;52.756;6.906;2023-09-07T02:27:33;20.90;;;19.30;;
52210;SDS011;38179;52.756;6.906;2023-09-07T02:29:59;20.60;;;18.90;;
52210;SDS011;38179;52.756;6.906;2023-09-07T02:32:25;21.52;;;19.50;;
52210;SDS011;38179;52.756;6.906;2023-09-07T02:34:51;20.65;;;18.90;;
52210;SDS011;38179;52.756;6.906;2023-09-07T02:37:16;21.13;;;19.10;;
52210;SDS011;38179;52.756;6.906;2023-09-07T02:39:42;20.60;;;18.90;;
52210;SDS011;38179;52.756;6.906;2023-09-07T02:42:08;21.23;;;19.52;;
52210;SDS011;38179;52.756;6.906;2023-09-07T02:44:34;20.10;;;18.60;;
52210;SDS011;38179;52.756;6.906;2023-09-07T02:47:01;21.73;;;19.90;;
52210;SDS011;38179;52.756;6.906;2023-09-07T02:49:27;20.98;;;19.13;;
52210;SDS011;38179;52.756;6.906;2023-09-07T02:51:52;20.58;;;18.75;;
52210;SDS011;38179;52.756;6.906;2023-09-07T02:54:18;20.80;;;19.05;;
52210;SDS011;38179;52.756;6.906;2023-09-07T02:56:44;20.45;;;18.85;;
52210;SDS011;38179;52.756;6.906;2023-09-07T02:59:10;21.15;;;19.08;;
52210;SDS011;38179;52.756;6.906;2023-09-07T03:01:38;20.48;;;18.73;;
52210;SDS011;38179;52.756;6.906;2023-09-07T03:04:04;20.95;;;19.25;;
52210;SDS011;38179;52.756;6.906;2023-09-07T03:06:32;21.10;;;19.42;;
52210;SDS011;38179;52.756;6.906;2023-09-07T03:08:58;21.15;;;19.10;;
52210;SDS011;38179;52.756;6.906;2023-09-07T03:11:24;20.33;;;18.63;;
52210;SDS011;38179;52.756;6.906;2023-09-07T03:13:51;20.08;;;18.58;;
52210;SDS011;38179;52.756;6.906;2023-09-07T03:16:18;20.98;;;19.08;;
52210;SDS011;38179;52.756;6.906;2023-09-07T03:18:44;21.13;;;19.33;;
52210;SDS011;38179;52.756;6.906;2023-09-07T03:21:10;21.13;;;19.20;;
52210;SDS011;38179;52.756;6.906;2023-09-07T03:23:36;21.45;;;19.35;;
52210;SDS011;38179;52.756;6.906;2023-09-07T03:26:04;21.02;;;19.02;;
52210;SDS011;38179;52.756;6.906;2023-09-07T03:28:30;20.05;;;18.52;;
52210;SDS011;38179;52.756;6.906;2023-09-07T03:30:56;20.92;;;19.15;;
52210;SDS011;38179;52.756;6.906;2023-09-07T03:33:22;20.90;;;19.20;;
52210;SDS011;38179;52.756;6.906;2023-09-07T03:35:48;21.48;;;19.40;;
52210;SDS011;38179;52.756;6.906;2023-09-07T03:38:14;20.90;;;19.15;;
52210;SDS011;38179;52.756;6.906;2023-09-07T03:40:40;20.25;;;18.65;;
52210;SDS011;38179;52.756;6.906;2023-09-07T03:43:25;21.58;;;19.55;;
52210;SDS011;38179;52.756;6.906;2023-09-07T03:45:53;20.00;;;18.08;;
52210;SDS011;38179;52.756;6.906;2023-09-07T03:48:20;20.65;;;18.73;;
52210;SDS011;38179;52.756;6.906;2023-09-07T03:53:15;21.73;;;19.25;;
52210;SDS011;38179;52.756;6.906;2023-09-07T03:55:41;19.77;;;17.95;;
52210;SDS011;38179;52.756;6.906;2023-09-07T03:58:09;20.00;;;18.20;;
52210;SDS011;38179;52.756;6.906;2023-09-07T04:00:38;20.83;;;19.13;;
52210;SDS011;38179;52.756;6.906;2023-09-07T04:03:05;19.80;;;18.02;;
52210;SDS011;38179;52.756;6.906;2023-09-07T04:05:32;20.55;;;18.85;;
52210;SDS011;38179;52.756;6.906;2023-09-07T04:07:58;21.00;;;19.42;;
52210;SDS011;38179;52.756;6.906;2023-09-07T04:10:25;20.65;;;18.95;;
52210;SDS011;38179;52.756;6.906;2023-09-07T04:12:54;21.38;;;19.50;;
52210;SDS011;38179;52.756;6.906;2023-09-07T04:15:20;20.52;;;18.83;;
52210;SDS011;38179;52.756;6.906;2023-09-07T04:17:46;20.60;;;18.98;;
52210;SDS011;38179;52.756;6.906;2023-09-07T04:20:12;20.63;;;18.83;;
52210;SDS011;38179;52.756;6.906;2023-09-07T04:22:39;20.77;;;19.05;;
52210;SDS011;38179;52.756;6.906;2023-09-07T04:25:05;21.23;;;19.35;;
52210;SDS011;38179;52.756;6.906;2023-09-07T04:27:32;21.65;;;19.60;;
52210;SDS011;38179;52.756;6.906;2023-09-07T04:29:57;20.60;;;18.90;;
52210;SDS011;38179;52.756;6.906;2023-09-07T04:32:24;20.77;;;18.77;;
52210;SDS011;38179;52.756;6.906;2023-09-07T04:34:56;21.08;;;18.90;;
52210;SDS011;38179;52.756;6.906;2023-09-07T04:37:22;21.52;;;19.17;;
52210;SDS011;38179;52.756;6.906;2023-09-07T04:39:52;20.83;;;19.02;;
52210;SDS011;38179;52.756;6.906;2023-09-07T04:42:18;20.73;;;18.90;;
52210;SDS011;38179;52.756;6.906;2023-09-07T04:44:45;20.92;;;19.05;;
52210;SDS011;38179;52.756;6.906;2023-09-07T04:47:14;20.38;;;18.67;;
52210;SDS011;38179;52.756;6.906;2023-09-07T04:49:48;21.40;;;19.45;;
52210;SDS011;38179;52.756;6.906;2023-09-07T04:52:16;21.30;;;19.50;;
52210;SDS011;38179;52.756;6.906;2023-09-07T04:54:42;21.17;;;19.25;;
52210;SDS011;38179;52.756;6.906;2023-09-07T04:57:13;21.63;;;19.45;;
52210;SDS011;38179;52.756;6.906;2023-09-07T04:59:42;21.10;;;19.25;;
52210;SDS011;38179;52.756;6.906;2023-09-07T05:02:07;21.23;;;19.33;;
52210;SDS011;38179;52.756;6.906;2023-09-07T05:04:33;21.80;;;19.75;;
52210;SDS011;38179;52.756;6.906;2023-09-07T05:07:00;20.90;;;19.00;;
52210;SDS011;38179;52.756;6.906;2023-09-07T05:09:26;20.52;;;18.85;;
52210;SDS011;38179;52.756;6.906;2023-09-07T05:11:54;21.50;;;19.60;;
52210;SDS011;38179;52.756;6.906;2023-09-07T05:14:21;23.08;;;20.75;;
52210;SDS011;38179;52.756;6.906;2023-09-07T05:16:52;22.50;;;20.38;;
52210;SDS011;38179;52.756;6.906;2023-09-07T05:19:18;21.40;;;19.33;;
52210;SDS011;38179;52.756;6.906;2023-09-07T05:21:43;21.90;;;19.83;;
52210;SDS011;38179;52.756;6.906;2023-09-07T05:24:12;23.23;;;20.75;;
52210;SDS011;38179;52.756;6.906;2023-09-07T05:26:38;22.80;;;20.35;;
52210;SDS011;38179;52.756;6.906;2023-09-07T05:29:04;21.88;;;20.08;;
52210;SDS011;38179;52.756;6.906;2023-09-07T05:31:30;22.40;;;20.35;;
52210;SDS011;38179;52.756;6.906;2023-09-07T05:33:56;21.35;;;19.52;;
52210;SDS011;38179;52.756;6.906;2023-09-07T05:36:22;22.45;;;20.40;;
52210;SDS011;38179;52.756;6.906;2023-09-07T05:38:48;21.83;;;20.02;;
52210;SDS011;38179;52.756;6.906;2023-09-07T05:41:14;22.75;;;20.60;;
52210;SDS011;38179;52.756;6.906;2023-09-07T05:43:40;22.33;;;20.30;;
52210;SDS011;38179;52.756;6.906;2023-09-07T05:46:05;22.40;;;20.35;;
52210;SDS011;38179;52.756;6.906;2023-09-07T05:48:31;21.60;;;19.90;;
52210;SDS011;38179;52.756;6.906;2023-09-07T05:50:57;22.40;;;20.33;;
52210;SDS011;38179;52.756;6.906;2023-09-07T05:53:23;22.48;;;19.85;;
52210;SDS011;38179;52.756;6.906;2023-09-07T05:55:50;23.08;;;20.77;;
52210;SDS011;38179;52.756;6.906;2023-09-07T05:58:16;22.23;;;20.33;;
52210;SDS011;38179;52.756;6.906;2023-09-07T06:00:42;22.08;;;20.17;;
52210;SDS011;38179;52.756;6.906;2023-09-07T06:05:43;22.48;;;20.58;;
52210;SDS011;38179;52.756;6.906;2023-09-07T06:11:03;23.08;;;20.85;;
52210;SDS011;38179;52.756;6.906;2023-09-07T06:13:29;22.00;;;19.92;;
52210;SDS011;38179;52.756;6.906;2023-09-07T06:15:55;21.45;;;19.65;;
52210;SDS011;38179;52.756;6.906;2023-09-07T06:18:21;23.08;;;20.95;;
52210;SDS011;38179;52.756;6.906;2023-09-07T06:20:46;22.52;;;20.35;;
52210;SDS011;38179;52.756;6.906;2023-09-07T06:23:12;23.15;;;21.02;;
52210;SDS011;38179;52.756;6.906;2023-09-07T06:25:38;22.23;;;20.27;;
52210;SDS011;38179;52.756;6.906;2023-09-07T06:28:04;25.38;;;22.23;;
52210;SDS011;38179;52.756;6.906;2023-09-07T06:30:30;22.27;;;20.38;;
52210;SDS011;38179;52.756;6.906;2023-09-07T06:32:56;23.17;;;21.15;;
52210;SDS011;38179;52.756;6.906;2023-09-07T06:35:22;22.75;;;20.58;;
52210;SDS011;38179;52.756;6.906;2023-09-07T06:37:48;22.33;;;20.20;;
52210;SDS011;38179;52.756;6.906;2023-09-07T06:40:14;22.05;;;20.02;;
52210;SDS011;38179;52.756;6.906;2023-09-07T06:42:42;24.15;;;21.77;;
52210;SDS011;38179;52.756;6.906;2023-09-07T06:45:08;23.27;;;21.23;;
52210;SDS011;38179;52.756;6.906;2023-09-07T06:47:35;23.25;;;21.25;;
52210;SDS011;38179;52.756;6.906;2023-09-07T06:50:01;24.05;;;21.88;;
52210;SDS011;38179;52.756;6.906;2023-09-07T06:52:28;23.38;;;21.05;;
52210;SDS011;38179;52.756;6.906;2023-09-07T06:54:54;23.38;;;21.35;;
52210;SDS011;38179;52.756;6.906;2023-09-07T06:57:20;22.23;;;20.30;;
52210;SDS011;38179;52.756;6.906;2023-09-07T06:59:47;22.52;;;20.65;;
52210;SDS011;38179;52.756;6.906;2023-09-07T07:02:14;22.52;;;20.63;;
52210;SDS011;38179;52.756;6.906;2023-09-07T07:04:39;22.85;;;20.95;;
52210;SDS011;38179;52.756;6.906;2023-09-07T07:07:05;23.15;;;21.08;;
52210;SDS011;38179;52.756;6.906;2023-09-07T07:09:31;22.45;;;20.73;;
52210;SDS011;38179;52.756;6.906;2023-09-07T07:11:59;22.25;;;20.45;;
52210;SDS011;38179;52.756;6.906;2023-09-07T07:14:26;22.00;;;20.08;;
52210;SDS011;38179;52.756;6.906;2023-09-07T07:16:52;22.17;;;20.35;;
52210;SDS011;38179;52.756;6.906;2023-09-07T07:19:18;22.85;;;20.77;;
52210;SDS011;38179;52.756;6.906;2023-09-07T07:21:44;27.92;;;20.88;;
52210;SDS011;38179;52.756;6.906;2023-09-07T07:24:10;22.58;;;20.77;;
52210;SDS011;38179;52.756;6.906;2023-09-07T07:26:36;23.02;;;20.92;;
52210;SDS011;38179;52.756;6.906;2023-09-07T07:29:02;21.33;;;19.42;;
52210;SDS011;38179;52.756;6.906;2023-09-07T07:31:30;22.27;;;20.17;;
52210;SDS011;38179;52.756;6.906;2023-09-07T07:33:56;21.95;;;20.00;;
52210;SDS011;38179;52.756;6.906;2023-09-07T07:36:23;21.15;;;19.45;;
52210;SDS011;38179;52.756;6.906;2023-09-07T07:38:49;22.35;;;20.38;;
52210;SDS011;38179;52.756;6.906;2023-09-07T07:41:15;22.02;;;20.20;;
52210;SDS011;38179;52.756;6.906;2023-09-07T07:43:41;21.80;;;19.70;;
52210;SDS011;38179;52.756;6.906;2023-09-07T07:46:07;21.75;;;19.75;;
52210;SDS011;38179;52.756;6.906;2023-09-07T07:48:35;22.25;;;20.35;;
52210;SDS011;38179;52.756;6.906;2023-09-07T07:51:03;21.85;;;20.15;;
52210;SDS011;38179;52.756;6.906;2023-09-07T07:53:30;21.27;;;19.48;;
52210;SDS011;38179;52.756;6.906;2023-09-07T07:55:57;21.73;;;19.95;;
52210;SDS011;38179;52.756;6.906;2023-09-07T07:58:23;21.35;;;19.33;;
52210;SDS011;38179;52.756;6.906;2023-09-07T08:00:48;21.92;;;20.13;;
52210;SDS011;38179;52.756;6.906;2023-09-07T08:03:15;22.23;;;20.13;;
52210;SDS011;38179;52.756;6.906;2023-09-07T08:05:42;21.25;;;19.40;;
52210;SDS011;38179;52.756;6.906;2023-09-07T08:08:08;22.55;;;20.23;;
52210;SDS011;38179;52.756;6.906;2023-09-07T08:10:34;21.60;;;19.90;;
52210;SDS011;38179;52.756;6.906;2023-09-07T08:13:06;21.95;;;20.00;;
52210;SDS011;38179;52.756;6.906;2023-09-07T08:15:33;21.88;;;19.88;;
52210;SDS011;38179;52.756;6.906;2023-09-07T08:17:59;21.60;;;19.83;;
52210;SDS011;38179;52.756;6.906;2023-09-07T08:20:25;22.10;;;20.27;;
52210;SDS011;38179;52.756;6.906;2023-09-07T08:22:55;21.42;;;19.67;;
52210;SDS011;38179;52.756;6.906;2023-09-07T08:25:21;21.38;;;19.60;;
52210;SDS011;38179;52.756;6.906;2023-09-07T08:30:17;22.73;;;20.38;;
52210;SDS011;38179;52.756;6.906;2023-09-07T08:32:43;21.58;;;19.42;;
52210;SDS011;38179;52.756;6.906;2023-09-07T08:35:11;21.35;;;19.23;;
52210;SDS011;38179;52.756;6.906;2023-09-07T08:37:42;21.20;;;19.42;;
52210;SDS011;38179;52.756;6.906;2023-09-07T08:40:08;22.10;;;19.88;;
52210;SDS011;38179;52.756;6.906;2023-09-07T08:42:36;21.25;;;19.40;;
52210;SDS011;38179;52.756;6.906;2023-09-07T08:45:03;21.98;;;20.02;;
52210;SDS011;38179;52.756;6.906;2023-09-07T08:49:59;21.50;;;19.55;;
52210;SDS011;38179;52.756;6.906;2023-09-07T08:52:26;22.10;;;20.05;;
52210;SDS011;38179;52.756;6.906;2023-09-07T08:54:52;20.95;;;19.02;;
52210;SDS011;38179;52.756;6.906;2023-09-07T08:57:20;20.63;;;18.73;;
52210;SDS011;38179;52.756;6.906;2023-09-07T08:59:47;21.25;;;19.52;;
52210;SDS011;38179;52.756;6.906;2023-09-07T09:02:14;21.08;;;19.30;;
52210;SDS011;38179;52.756;6.906;2023-09-07T09:04:41;21.50;;;19.70;;
52210;SDS011;38179;52.756;6.906;2023-09-07T09:07:07;21.27;;;19.55;;
52210;SDS011;38179;52.756;6.906;2023-09-07T09:09:34;21.42;;;19.52;;
52210;SDS011;38179;52.756;6.906;2023-09-07T09:12:09;21.05;;;19.15;;
52210;SDS011;38179;52.756;6.906;2023-09-07T09:14:36;21.02;;;19.27;;
52210;SDS011;38179;52.756;6.906;2023-09-07T09:17:02;21.38;;;19.67;;
52210;SDS011;38179;52.756;6.906;2023-09-07T09:19:31;21.40;;;19.60;;
52210;SDS011;38179;52.756;6.906;2023-09-07T09:21:58;21.38;;;19.67;;
52210;SDS011;38179;52.756;6.906;2023-09-07T09:24:24;21.35;;;19.55;;
52210;SDS011;38179;52.756;6.906;2023-09-07T09:26:50;21.65;;;19.95;;
52210;SDS011;38179;52.756;6.906;2023-09-07T09:29:16;21.83;;;19.75;;
52210;SDS011;38179;52.756;6.906;2023-09-07T09:31:46;21.08;;;19.25;;
52210;SDS011;38179;52.756;6.906;2023-09-07T09:34:12;21.38;;;19.65;;
52210;SDS011;38179;52.756;6.906;2023-09-07T09:36:40;22.38;;;20.48;;
52210;SDS011;38179;52.756;6.906;2023-09-07T09:39:07;21.95;;;20.00;;
52210;SDS011;38179;52.756;6.906;2023-09-07T09:41:34;21.55;;;19.75;;
52210;SDS011;38179;52.756;6.906;2023-09-07T09:44:04;21.48;;;19.65;;
52210;SDS011;38179;52.756;6.906;2023-09-07T09:46:31;21.50;;;19.90;;
52210;SDS011;38179;52.756;6.906;2023-09-07T09:48:57;21.60;;;19.85;;
52210;SDS011;38179;52.756;6.906;2023-09-07T09:51:25;21.38;;;19.35;;
52210;SDS011;38179;52.756;6.906;2023-09-07T09:53:53;21.33;;;19.40;;
52210;SDS011;38179;52.756;6.906;2023-09-07T09:56:19;21.73;;;19.83;;
52210;SDS011;38179;52.756;6.906;2023-09-07T09:58:45;21.50;;;19.48;;
52210;SDS011;38179;52.756;6.906;2023-09-07T10:01:11;21.42;;;19.63;;
52210;SDS011;38179;52.756;6.906;2023-09-07T10:03:44;21.75;;;19.95;;
52210;SDS011;38179;52.756;6.906;2023-09-07T10:06:33;21.85;;;20.15;;
52210;SDS011;38179;52.756;6.906;2023-09-07T10:09:04;22.85;;;20.92;;
52210;SDS011;38179;52.756;6.906;2023-09-07T10:11:37;21.90;;;20.08;;
52210;SDS011;38179;52.756;6.906;2023-09-07T10:14:04;21.88;;;20.05;;
52210;SDS011;38179;52.756;6.906;2023-09-07T10:16:49;22.30;;;20.30;;
52210;SDS011;38179;52.756;6.906;2023-09-07T10:19:25;22.05;;;20.08;;
52210;SDS011;38179;52.756;6.906;2023-09-07T10:21:54;22.55;;;20.42;;
52210;SDS011;38179;52.756;6.906;2023-09-07T10:24:25;21.50;;;19.60;;
52210;SDS011;38179;52.756;6.906;2023-09-07T10:26:56;21.67;;;19.83;;
52210;SDS011;38179;52.756;6.906;2023-09-07T10:29:40;22.17;;;20.27;;
52210;SDS011;38179;52.756;6.906;2023-09-07T10:32:10;22.20;;;20.25;;
52210;SDS011;38179;52.756;6.906;2023-09-07T10:34:42;22.35;;;20.45;;
52210;SDS011;38179;52.756;6.906;2023-09-07T10:37:09;22.23;;;20.25;;
52210;SDS011;38179;52.756;6.906;2023-09-07T10:42:04;21.52;;;19.73;;
52210;SDS011;38179;52.756;6.906;2023-09-07T10:44:30;21.75;;;19.85;;
52210;SDS011;38179;52.756;6.906;2023-09-07T10:46:58;21.85;;;20.15;;
52210;SDS011;38179;52.756;6.906;2023-09-07T10:49:28;21.40;;;19.80;;
52210;SDS011;38179;52.756;6.906;2023-09-07T10:51:54;21.77;;;19.77;;
52210;SDS011;38179;52.756;6.906;2023-09-07T10:54:23;22.63;;;20.73;;
52210;SDS011;38179;52.756;6.906;2023-09-07T10:56:50;22.75;;;20.77;;
52210;SDS011;38179;52.756;6.906;2023-09-07T10:59:17;22.65;;;20.67;;
52210;SDS011;38179;52.756;6.906;2023-09-07T11:04:23;22.10;;;20.42;;
52210;SDS011;38179;52.756;6.906;2023-09-07T11:06:49;21.88;;;19.88;;
52210;SDS011;38179;52.756;6.906;2023-09-07T11:09:15;22.17;;;20.38;;
52210;SDS011;38179;52.756;6.906;2023-09-07T11:11:46;23.08;;;21.15;;
52210;SDS011;38179;52.756;6.906;2023-09-07T11:14:12;22.98;;;20.90;;
52210;SDS011;38179;52.756;6.906;2023-09-07T11:16:40;22.23;;;20.33;;
52210;SDS011;38179;52.756;6.906;2023-09-07T11:19:06;22.20;;;20.50;;
52210;SDS011;38179;52.756;6.906;2023-09-07T11:21:36;21.92;;;20.15;;
52210;SDS011;38179;52.756;6.906;2023-09-07T11:24:02;22.08;;;20.13;;
52210;SDS011;38179;52.756;6.906;2023-09-07T11:26:41;22.13;;;20.33;;
52210;SDS011;38179;52.756;6.906;2023-09-07T11:29:08;22.10;;;20.50;;
52210;SDS011;38179;52.756;6.906;2023-09-07T11:31:34;22.10;;;20.33;;
52210;SDS011;38179;52.756;6.906;2023-09-07T11:34:00;22.02;;;20.27;;
52210;SDS011;38179;52.756;6.906;2023-09-07T11:36:26;21.67;;;20.08;;
52210;SDS011;38179;52.756;6.906;2023-09-07T11:38:53;21.85;;;20.13;;
52210;SDS011;38179;52.756;6.906;2023-09-07T11:41:18;22.35;;;20.50;;
52210;SDS011;38179;52.756;6.906;2023-09-07T11:43:44;21.55;;;19.95;;
52210;SDS011;38179;52.756;6.906;2023-09-07T11:46:10;22.65;;;20.50;;
52210;SDS011;38179;52.756;6.906;2023-09-07T11:48:36;21.85;;;20.15;;
52210;SDS011;38179;52.756;6.906;2023-09-07T11:51:03;22.38;;;20.38;;
52210;SDS011;38179;52.756;6.906;2023-09-07T11:53:31;22.77;;;20.67;;
52210;SDS011;38179;52.756;6.906;2023-09-07T11:55:57;21.90;;;20.23;;
52210;SDS011;38179;52.756;6.906;2023-09-07T11:58:23;22.50;;;20.50;;
52210;SDS011;38179;52.756;6.906;2023-09-07T12:00:51;22.63;;;20.60;;
52210;SDS011;38179;52.756;6.906;2023-09-07T12:03:17;22.38;;;20.42;;
52210;SDS011;38179;52.756;6.906;2023-09-07T12:05:43;22.15;;;20.30;;
52210;SDS011;38179;52.756;6.906;2023-09-07T12:08:09;22.75;;;20.92;;
52210;SDS011;38179;52.756;6.906;2023-09-07T12:10:35;21.92;;;20.33;;
52210;SDS011;38179;52.756;6.906;2023-09-07T12:13:01;22.08;;;20.40;;
52210;SDS011;38179;52.756;6.906;2023-09-07T12:15:30;21.98;;;20.20;;
52210;SDS011;38179;52.756;6.906;2023-09-07T12:17:56;21.88;;;20.05;;
52210;SDS011;38179;52.756;6.906;2023-09-07T12:20:22;22.67;;;20.73;;
52210;SDS011;38179;52.756;6.906;2023-09-07T12:22:48;22.60;;;20.63;;
52210;SDS011;38179;52.756;6.906;2023-09-07T12:25:14;22.23;;;20.27;;
52210;SDS011;38179;52.756;6.906;2023-09-07T12:27:40;22.08;;;20.48;;
52210;SDS011;38179;52.756;6.906;2023-09-07T12:30:09;23.65;;;21.55;;
52210;SDS011;38179;52.756;6.906;2023-09-07T12:32:38;22.45;;;20.63;;
52210;SDS011;38179;52.756;6.906;2023-09-07T12:35:05;22.80;;;20.83;;
52210;SDS011;38179;52.756;6.906;2023-09-07T12:37:34;23.38;;;21.38;;
52210;SDS011;38179;52.756;6.906;2023-09-07T12:40:01;21.95;;;20.20;;
52210;SDS011;38179;52.756;6.906;2023-09-07T12:42:30;22.33;;;20.52;;
52210;SDS011;38179;52.756;6.906;2023-09-07T12:44:58;21.58;;;19.98;;
52210;SDS011;38179;52.756;6.906;2023-09-07T12:47:23;21.95;;;20.25;;
52210;SDS011;38179;52.756;6.906;2023-09-07T12:49:50;22.67;;;20.75;;
52210;SDS011;38179;52.756;6.906;2023-09-07T12:52:16;22.05;;;20.25;;
52210;SDS011;38179;52.756;6.906;2023-09-07T12:54:42;21.88;;;19.98;;
52210;SDS011;38179;52.756;6.906;2023-09-07T12:57:08;22.73;;;20.92;;
52210;SDS011;38179;52.756;6.906;2023-09-07T12:59:34;22.33;;;20.63;;
52210;SDS011;38179;52.756;6.906;2023-09-07T13:02:00;22.52;;;20.63;;
52210;SDS011;38179;52.756;6.906;2023-09-07T13:04:26;22.40;;;20.50;;
52210;SDS011;38179;52.756;6.906;2023-09-07T13:06:52;23.00;;;20.98;;
52210;SDS011;38179;52.756;6.906;2023-09-07T13:09:17;22.52;;;20.70;;
52210;SDS011;38179;52.756;6.906;2023-09-07T13:11:43;22.75;;;20.65;;
52210;SDS011;38179;52.756;6.906;2023-09-07T13:14:10;21.85;;;20.05;;
52210;SDS011;38179;52.756;6.906;2023-09-07T13:16:35;22.60;;;20.70;;
52210;SDS011;38179;52.756;6.906;2023-09-07T13:19:02;22.73;;;20.73;;
52210;SDS011;38179;52.756;6.906;2023-09-07T13:21:27;22.27;;;20.42;;
52210;SDS011;38179;52.756;6.906;2023-09-07T13:23:55;22.42;;;20.70;;
52210;SDS011;38179;52.756;6.906;2023-09-07T13:26:23;22.17;;;20.58;;
52210;SDS011;38179;52.756;6.906;2023-09-07T13:28:50;21.90;;;20.30;;
52210;SDS011;38179;52.756;6.906;2023-09-07T13:31:16;22.10;;;20.40;;
52210;SDS011;38179;52.756;6.906;2023-09-07T13:33:42;23.05;;;21.10;;
52210;SDS011;38179;52.756;6.906;2023-09-07T13:36:08;22.77;;;20.98;;
52210;SDS011;38179;52.756;6.906;2023-09-07T13:38:36;22.70;;;20.67;;
52210;SDS011;38179;52.756;6.906;2023-09-07T13:41:06;21.98;;;20.38;;
52210;SDS011;38179;52.756;6.906;2023-09-07T13:43:32;21.80;;;20.20;;
52210;SDS011;38179;52.756;6.906;2023-09-07T13:45:58;22.35;;;20.50;;
52210;SDS011;38179;52.756;6.906;2023-09-07T13:48:24;22.05;;;20.38;;
52210;SDS011;38179;52.756;6.906;2023-09-07T13:50:50;22.23;;;20.52;;
52210;SDS011;38179;52.756;6.906;2023-09-07T13:53:16;22.98;;;20.98;;
52210;SDS011;38179;52.756;6.906;2023-09-07T13:55:42;22.10;;;20.50;;
52210;SDS011;38179;52.756;6.906;2023-09-07T13:58:11;22.42;;;20.83;;
52210;SDS011;38179;52.756;6.906;2023-09-07T14:00:37;22.42;;;20.65;;
52210;SDS011;38179;52.756;6.906;2023-09-07T14:03:03;22.15;;;20.35;;
52210;SDS011;38179;52.756;6.906;2023-09-07T14:05:29;22.38;;;20.60;;
52210;SDS011;38179;52.756;6.906;2023-09-07T14:07:55;22.40;;;20.70;;
52210;SDS011;38179;52.756;6.906;2023-09-07T14:10:22;22.60;;;20.85;;
52210;SDS011;38179;52.756;6.906;2023-09-07T14:12:51;22.27;;;20.27;;
52210;SDS011;38179;52.756;6.906;2023-09-07T14:15:17;22.65;;;20.85;;
52210;SDS011;38179;52.756;6.906;2023-09-07T14:17:43;23.27;;;21.10;;
52210;SDS011;38179;52.756;6.906;2023-09-07T14:20:09;21.85;;;20.17;;
52210;SDS011;38179;52.756;6.906;2023-09-07T14:22:35;22.83;;;20.83;;
52210;SDS011;38179;52.756;6.906;2023-09-07T14:25:01;22.52;;;20.83;;
52210;SDS011;38179;52.756;6.906;2023-09-07T14:27:27;22.02;;;20.42;;
52210;SDS011;38179;52.756;6.906;2023-09-07T14:29:53;22.65;;;20.77;;
52210;SDS011;38179;52.756;6.906;2023-09-07T14:32:20;22.90;;;21.17;;
52210;SDS011;38179;52.756;6.906;2023-09-07T14:34:45;22.42;;;20.70;;
52210;SDS011;38179;52.756;6.906;2023-09-07T14:37:11;23.17;;;21.17;;